• Join FlightAware (Why Join?)
  • Login
  • US Flag 
Trick or treat! (Boo!!) 
10:29AM EDT


 

Airport Tracker/Info


-or-


 

Live Flight TrackerFlight Track Log ✈ AWE2371 ✈ 29-Jul-2014 ✈ KBOS - KDFW

Flight Track Log - Related Links

Times and Time Zones

All times are in EDT time to prevent confusion due to time zone crossing. See the AWE2371 flight status page for this flight to view local times or setup timezone preferences in your user account.

Time Position Orientation Groundspeed Altitude Reporting Facility
EDT Latitude Longitude Course Direction KTS MPH feet Rate Location/Type
07:38PM 42.4036 -70.9857 21° North 182 209 1,400  Level FlightAware ADS-B (KBOS)
07:39PM 42.4322 -70.9676 37° Northeast 216 249 2,000 1,020 Climbing FlightAware ADS-B (KBOS)
07:39PM 42.4388 -70.9578 53° Northeast 229 264 2,200 1,200 Climbing FlightAware ADS-B (KBOS)
07:39PM 42.4445 -70.9432 68° East 243 280 2,400 1,200 Climbing FlightAware ADS-B (KBOS)
07:39PM 42.4500 -70.9122 77° East 267 307 2,800 1,740 Climbing FlightAware ADS-B (KBOS)
07:40PM 42.4568 -70.8721 80° East 274 315 3,700 2,220 Climbing FlightAware ADS-B (KBOS)
07:40PM 42.4570 -70.8553 94° East 276 318 4,100 2,280 Climbing FlightAware ADS-B (KBOS)
07:40PM 42.4531 -70.8377 113° Southeast 276 318 4,500 2,400 Climbing FlightAware ADS-B (KBOS)
07:40PM 42.4393 -70.8082 126° Southeast 276 318 5,300 2,520 Climbing FlightAware ADS-B (KBOS)
07:41PM 42.4180 -70.7887 160° South 271 312 6,200 2,880 Climbing FlightAware ADS-B (KBOS)
07:41PM 42.4064 -70.7865 177° South 266 306 6,700 2,700 Climbing FlightAware ADS-B (KBOS)
07:41PM 42.3943 -70.7893 195° South 265 305 7,100 2,280 Climbing FlightAware ADS-B (KBOS)
07:41PM 42.3840 -70.7964 213° Southwest 264 304 7,500 2,700 Climbing FlightAware ADS-B (KBOS)
07:41PM 42.3738 -70.8086 224° Southwest 267 307 8,000 3,000 Climbing FlightAware ADS-B (KBOS)
07:42PM 42.3613 -70.8257 222° Southwest 267 307 8,700 2,880 Climbing FlightAware ADS-B (KASH)
07:42PM 42.3474 -70.8443 224° Southwest 262 302 9,500 2,520 Climbing FlightAware ADS-B (KBOS)
07:42PM 42.3251 -70.8731 224° Southwest 270 311 10,700 1,920 Climbing FlightAware ADS-B (KBOS)
07:43PM 42.2903 -70.9185 225° Southwest 295 339 11,500 1,680 Climbing FlightAware ADS-B (KBOS)
07:43PM 42.2855 -70.9253 225° Southwest 295 339 11,800 2,820 Climbing FlightAware ADS-B (KOWD)
07:43PM 42.2761 -70.9454 244° Southwest 297 342 12,400 2,160 Climbing FlightAware ADS-B (KBOS)
07:43PM 42.2701 -70.9662 255° West 307 353 12,700 1,140 Climbing FlightAware ADS-B (KOWD)
07:44PM 42.2665 -70.9999 266° West 318 366 13,000 900 Climbing FlightAware ADS-B (KBOS)
07:44PM 42.2635 -71.0483 267° West 340 391 13,300 960 Climbing FlightAware ADS-B (KASH)
07:44PM 42.2624 -71.0703 267° West 353 406 13,500 2,100 Climbing FlightAware ADS-B (KASH)
07:45PM 42.2602 -71.1112 267° West 356 410 14,300 2,520 Climbing FlightAware ADS-B (KASH)
07:45PM 42.2564 -71.1790 266° West 362 417 15,600 2,460 Climbing FlightAware ADS-B (KBOS)
07:46PM 42.2526 -71.2482 267° West 365 420 16,900 2,520 Climbing FlightAware ADS-B (KASH)
07:46PM 42.2505 -71.2873 266° West 368 423 17,700 2,400 Climbing FlightAware ADS-B (KBOS)
07:46PM 42.2463 -71.3629 267° West 375 432 18,900 2,280 Climbing FlightAware ADS-B (KASH)
07:47PM 42.2424 -71.4319 267° West 382 440 20,000 2,160 Climbing FlightAware ADS-B (KASH)
07:47PM 42.2382 -71.5058 267° West 387 445 21,100 2,040 Climbing FlightAware ADS-B (KASH)
07:48PM 42.2319 -71.6144 266° West 395 455 22,600 1,980 Climbing FlightAware ADS-B (KASH)
07:49PM 42.2274 -71.6892 265° West 399 459 23,600 1,860 Climbing FlightAware ADS-B (KASH)
07:49PM 42.2230 -71.7629 266° West 404 465 24,500 1,740 Climbing FlightAware ADS-B (KASH)
07:50PM 42.2161 -71.8774 265° West 410 472 25,800 1,680 Climbing FlightAware ADS-B (KASH)
07:50PM 42.2114 -71.9532 265° West 415 478 26,600 1,500 Climbing FlightAware ADS-B (KASH)
07:51PM 42.2066 -72.0314 265° West 420 483 27,300 1,680 Climbing FlightAware ADS-B (KASH)
07:51PM 42.2014 -72.1146 265° West 422 486 28,400 1,500 Climbing FlightAware ADS-B (KSNC)
07:52PM 42.1967 -72.1881 265° West 426 490 29,000 1,320 Climbing FlightAware ADS-B (KSNC)
07:53PM 42.1894 -72.3022 265° West 423 487 30,000 1,620 Climbing FlightAware ADS-B (KSNC)
07:53PM 42.1839 -72.3858 265° West 421 484 30,900 1,560 Climbing FlightAware ADS-B (KASH)
07:54PM 42.1783 -72.4704 265° West 419 482 31,700 1,500 Climbing FlightAware ADS-B (KSNC)
07:54PM 42.1733 -72.5472 265° West 417 480 32,500 1,440 Climbing FlightAware ADS-B (KSNC)
07:55PM 42.1677 -72.6295 265° West 415 478 33,200 1,380 Climbing FlightAware ADS-B (KASH)
07:55PM 42.1599 -72.6992 254° West 399 459 33,900 960 Climbing FlightAware ADS-B (KSNC)
07:56PM 42.1460 -72.7414 241° Southwest 386 444 34,000 120 Climbing FlightAware ADS-B (KSNC)
07:56PM 42.1214 -72.7844 230° Southwest 380 437 34,000  Level FlightAware ADS-B (KSNC)
07:57PM 42.0824 -72.8466 230° Southwest 380 437 34,000  Level FlightAware ADS-B (KSNC)
07:57PM 42.0506 -72.8968 230° Southwest 379 436 34,000  Level FlightAware ADS-B (KSNC)
07:58PM 42.0084 -72.9640 230° Southwest 377 434 34,000  Level FlightAware ADS-B (KSNC)
07:58PM 41.9645 -73.0339 230° Southwest 378 435 34,000  Level FlightAware ADS-B (KSNC)
07:59PM 41.9160 -73.1101 230° Southwest 377 434 34,000  Level FlightAware ADS-B (KSNC)
08:00PM 41.8717 -73.1796 230° Southwest 378 435 34,000  Level FlightAware ADS-B (KSNC)
08:00PM 41.8388 -73.2314 230° Southwest 378 435 34,000  Level FlightAware ADS-B (KSNC)
08:01PM 41.8000 -73.2922 230° Southwest 380 437 34,000  Level FlightAware ADS-B (KSNC)
08:01PM 41.7652 -73.3468 230° Southwest 382 440 34,000  Level FlightAware ADS-B (KSNC)
08:02PM 41.7204 -73.4166 229° Southwest 384 442 34,000  Level FlightAware ADS-B (KSNC)
08:02PM 41.6844 -73.4724 229° Southwest 386 444 34,000  Level FlightAware ADS-B (KSNC)
08:03PM 41.6349 -73.5495 230° Southwest 388 447 34,000 780 Level FlightAware ADS-B (KSNC)
08:03PM 41.6050 -73.5963 231° Southwest 377 434 34,700 1,380 Climbing FlightAware ADS-B (KWWD)
08:04PM 41.5797 -73.6357 230° Southwest 380 437 35,200 840 Climbing FlightAware ADS-B (KSNC)
08:04PM 41.5420 -73.6940 229° Southwest 379 436 35,700 660 Climbing FlightAware ADS-B (KSNC)
08:05PM 41.4977 -73.7625 229° Southwest 382 440 36,000 240 Climbing FlightAware ADS-B (KSNC)
08:06PM 41.4620 -73.8174 229° Southwest 382 440 36,000  Level FlightAware ADS-B (KSNC)
08:06PM 41.4155 -73.8886 229° Southwest 386 444 36,000  Level FlightAware ADS-B (KSNC)
08:07PM 41.3803 -73.9426 229° Southwest 389 448 36,000  Level FlightAware ADS-B (KSNC)
08:07PM 41.3468 -73.9938 229° Southwest 389 448 36,000  Level FlightAware ADS-B (KSNC)
08:08PM 41.2956 -74.0724 229° Southwest 391 450 36,000  Level FlightAware ADS-B (KSNC)
08:09PM 41.2700 -74.1114 229° Southwest 391 450 36,000  Level FlightAware ADS-B (KSNC)
08:09PM 41.1969 -74.2226 229° Southwest 391 450 36,000  Level FlightAware ADS-B (KSNC)
08:10PM 41.1537 -74.2881 229° Southwest 391 450 36,000  Level FlightAware ADS-B (KSNC)
08:11PM 41.1064 -74.3597 229° Southwest 391 450 36,000  Level FlightAware ADS-B (KSNC)
08:11PM 41.0644 -74.4235 229° Southwest 391 450 36,000  Level FlightAware ADS-B (KSNC)
08:12PM 41.0069 -74.5101 229° Southwest 392 451 36,000  Level FlightAware ADS-B (KWWD)
08:12PM 40.9831 -74.5458 229° Southwest 392 451 36,000  Level FlightAware ADS-B (KPHL)
08:13PM 40.9210 -74.6391 229° Southwest 392 451 36,000  Level FlightAware ADS-B (KWWD)
08:14PM 40.8752 -74.7073 229° Southwest 393 452 36,000  Level FlightAware ADS-B (KWWD)
08:14PM 40.8359 -74.7660 228° Southwest 392 451 36,000  Level FlightAware ADS-B (KWWD)
08:15PM 40.7940 -74.8327 237° Southwest 389 448 36,000  Level FlightAware ADS-B (KWWD)
08:15PM 40.7693 -74.8860 239° Southwest 396 456 36,000  Level FlightAware ADS-B (KPHL)
08:16PM 40.7174 -75.0009 239° Southwest 396 456 36,000  Level FlightAware ADS-B (KPHL)
08:17PM 40.6682 -75.1094 240° Southwest 392 451 36,000  Level FlightAware ADS-B (KWWD)
08:18PM 40.6286 -75.1963 240° Southwest 391 450 36,000  Level FlightAware ADS-B (KWWD)
08:18PM 40.6048 -75.2487 239° Southwest 396 456 36,000  Level FlightAware ADS-B (KPHL)
08:19PM 40.5572 -75.3524 240° Southwest 392 451 36,000  Level FlightAware ADS-B (KWWD)
08:19PM 40.5438 -75.3817 239° Southwest 397 457 36,000  Level FlightAware ADS-B (KPHL)
08:20PM 40.4898 -75.4990 239° Southwest 398 458 36,000  Level FlightAware ADS-B (KPHL)
08:21PM 40.4413 -75.6046 239° Southwest 400 460 36,000  Level FlightAware ADS-B (KWWD)
08:21PM 40.4116 -75.6682 239° Southwest 400 460 36,000  Level FlightAware ADS-B (KWWD)
08:22PM 40.3770 -75.7426 239° Southwest 401 461 36,000  Level FlightAware ADS-B (KWWD)
08:23PM 40.3353 -75.8327 239° Southwest 404 465 36,000  Level FlightAware ADS-B (KWWD)
08:23PM 40.3060 -75.8956 239° Southwest 404 465 36,000  Level FlightAware ADS-B (KWWD)
08:24PM 40.2680 -75.9766 238° Southwest 406 467 36,000  Level FlightAware ADS-B (KWWD)
08:24PM 40.2640 -75.9840 239° Southwest 407 468 36,000  Level FlightAware ADS-B (KPEO)
08:24PM 40.2527 -76.0090 239° Southwest 407 468 36,000  Level FlightAware ADS-B (KPHL)
08:25PM 40.2230 -76.0730 239° Southwest 410 472 36,000  Level FlightAware ADS-B (KPEO)
08:25PM 40.1980 -76.1265 239° Southwest 409 471 36,000  Level FlightAware ADS-B (KWWD)
08:26PM 40.1581 -76.2104 239° Southwest 407 468 36,000  Level FlightAware ADS-B (KWWD)
08:26PM 40.1501 -76.2274 238° Southwest 413 475 36,000  Level FlightAware ADS-B (KPHL)
08:27PM 40.1154 -76.3005 239° Southwest 414 476 36,000  Level FlightAware ADS-B (KAPG)
08:28PM 40.0632 -76.4137 239° Southwest 415 478 36,000  Level FlightAware ADS-B (KAPG)
08:28PM 40.0248 -76.4976 240° Southwest 414 476 36,000  Level FlightAware ADS-B (KJYO)
08:28PM 40.0183 -76.5118 239° Southwest 415 478 36,000  Level FlightAware ADS-B (KAPG)
08:29PM 40.0210 -76.5058 240° Southwest 414 476 36,000  Level FlightAware ADS-B (KJYO)
08:29PM 39.9880 -76.5775 239° Southwest 415 478 36,000  Level FlightAware ADS-B (KAPG)
08:30PM 39.9469 -76.6656 239° Southwest 413 475 36,000  Level FlightAware ADS-B (KAPG)
08:30PM 39.9319 -76.6979 239° Southwest 412 474 36,000  Level FlightAware ADS-B (KJYO)
08:30PM 39.9403 -76.6799 239° Southwest 412 474 36,000  Level FlightAware ADS-B (KAPG)
08:30PM 39.9004 -76.7651 239° Southwest 411 473 36,000  Level FlightAware ADS-B (KJYO)
08:31PM 39.8705 -76.8288 239° Southwest 409 471 36,000  Level FlightAware ADS-B (KJYO)
08:31PM 39.8634 -76.8439 239° Southwest 410 472 36,000  Level FlightAware ADS-B
08:31PM 39.8420 -76.8897 239° Southwest 409 471 36,000  Level FlightAware ADS-B (KJYO)
08:32PM 39.8328 -76.9094 239° Southwest 409 471 36,000  Level FlightAware ADS-B
08:32PM 39.8115 -76.9551 239° Southwest 407 468 36,000  Level FlightAware ADS-B (KJYO)
08:32PM 39.8272 -76.9214 239° Southwest 408 470 36,000  Level FlightAware ADS-B
08:32PM 39.7821 -77.0176 239° Southwest 406 467 36,000  Level FlightAware ADS-B (KJYO)
08:33PM 39.7541 -77.0771 239° Southwest 406 467 36,000  Level FlightAware ADS-B (KJYO)
08:33PM 39.7658 -77.0521 238° Southwest 406 467 36,000  Level FlightAware ADS-B
08:33PM 39.7234 -77.1415 239° Southwest 406 467 36,000  Level FlightAware ADS-B (KJYO)
08:33PM 39.7176 -77.1537 238° Southwest 406 467 36,000  Level FlightAware ADS-B
08:34PM 39.6936 -77.2043 239° Southwest 405 466 36,000  Level FlightAware ADS-B (KJYO)
08:34PM 39.6871 -77.2179 239° Southwest 406 467 36,000  Level FlightAware ADS-B
08:34PM 39.6645 -77.2661 239° Southwest 406 467 36,000  Level FlightAware ADS-B (KJYO)
08:35PM 39.6707 -77.2531 239° Southwest 407 468 36,000  Level FlightAware ADS-B
08:35PM 39.6356 -77.3273 239° Southwest 406 467 36,000  Level FlightAware ADS-B (KJYO)
08:35PM 39.6417 -77.3145 238° Southwest 407 468 36,000  Level FlightAware ADS-B
08:35PM 39.6054 -77.3904 239° Southwest 406 467 36,000  Level FlightAware ADS-B (KJYO)
08:36PM 39.5787 -77.4466 238° Southwest 408 470 36,000  Level FlightAware ADS-B
08:36PM 39.5757 -77.4528 239° Southwest 407 468 36,000  Level FlightAware ADS-B (KJYO)
08:36PM 39.5462 -77.5145 239° Southwest 408 470 36,000  Level FlightAware ADS-B (KJYO)
08:36PM 39.5738 -77.4567 238° Southwest 408 470 36,000  Level FlightAware ADS-B
08:37PM 39.5164 -77.5763 239° Southwest 408 470 36,000  Level FlightAware ADS-B (KJYO)
08:37PM 39.4863 -77.6391 239° Southwest 409 471 36,000  Level FlightAware ADS-B (KJYO)
08:38PM 39.4565 -77.7007 239° Southwest 411 473 36,000  Level FlightAware ADS-B (KJYO)
08:38PM 39.4374 -77.7406 239° Southwest 408 470 36,000  Level FlightAware ADS-B (KWWD)
08:38PM 39.4261 -77.7639 239° Southwest 411 473 36,000  Level FlightAware ADS-B (KJYO)
08:38PM 39.4047 -77.8086 239° Southwest 409 471 36,000  Level FlightAware ADS-B (KWWD)
08:39PM 39.3965 -77.8258 239° Southwest 412 474 36,000  Level FlightAware ADS-B (KJYO)
08:40PM 39.3476 -77.9445 244° Southwest 414 476 36,000  Level FlightAware ADS-B (KJYO)
08:40PM 39.3214 -78.0105 243° Southwest 415 478 36,000  Level FlightAware ADS-B (KJYO)
08:41PM 39.2943 -78.0786 243° Southwest 415 478 36,000  Level FlightAware ADS-B (KJYO)
08:41PM 39.2800 -78.1143 243° Southwest 417 480 36,000  Level FlightAware ADS-B (KWWD)
08:41PM 39.2683 -78.1436 243° Southwest 416 479 36,000  Level FlightAware ADS-B (KJYO)
08:41PM 39.2438 -78.2050 243° Southwest 418 481 36,000  Level FlightAware ADS-B (KWWD)
08:42PM 39.2434 -78.2061 243° Southwest 417 480 36,000  Level FlightAware ADS-B (KJYO)
08:42PM 39.2246 -78.2526 243° Southwest 417 480 36,000  Level FlightAware ADS-B (KJYO)
08:43PM 39.1916 -78.3350 243° Southwest 417 480 36,000  Level FlightAware ADS-B (KJYO)
08:43PM 39.1683 -78.3931 243° Southwest 416 479 36,000  Level FlightAware ADS-B (KJYO)
08:44PM 39.1376 -78.4691 243° Southwest 416 479 36,000  Level FlightAware ADS-B (KDAA)
08:45PM 39.0961 -78.5718 243° Southwest 416 479 36,000  Level FlightAware ADS-B (KDAA)
08:45PM 39.0709 -78.6340 242° Southwest 416 479 36,000  Level FlightAware ADS-B (KWWD)
08:45PM 39.0434 -78.7011 243° Southwest 416 479 36,000  Level FlightAware ADS-B (KWWD)
08:46PM 39.0127 -78.7770 243° Southwest 417 480 36,000  Level FlightAware ADS-B (KWWD)
08:46PM 38.9803 -78.8566 242° Southwest 415 478 36,000  Level FlightAware ADS-B (KWWD)
08:47PM 38.9360 -78.9647 242° Southwest 416 479 36,000  Level FlightAware ADS-B (KWWD)
08:49PM 38.8346 -79.2308 252° West 414 476 36,000  Level FlightAware ADS-B (KWWD)
08:50PM 38.8177 -79.3240 258° West 415 478 36,000  Level FlightAware ADS-B (KWWD)
08:51PM 38.7953 -79.4478 258° West 420 483 36,000  Level Indianapolis Center
08:52PM 38.7767 -79.5728 259° West 415 478 36,000  Level Washington Center
08:53PM 38.7508 -79.7178 257° West 421 484 36,000  Level Washington Center
08:54PM 38.7250 -79.8600 257° West 421 484 36,000  Level Washington Center
08:55PM 38.6947 -80.0047 255° West 426 490 36,000  Level Washington Center
08:56PM 38.6603 -80.1858 256° West 415 478 36,000  Level Indianapolis Center
08:57PM 38.6328 -80.3308 256° West 415 478 36,000  Level Indianapolis Center
08:58PM 38.6047 -80.4747 256° West 416 479 36,000  Level Indianapolis Center
08:59PM 38.5775 -80.6181 256° West 416 479 36,000  Level Indianapolis Center
09:00PM 38.5494 -80.7619 256° West 416 479 36,000  Level Indianapolis Center
09:01PM 38.5219 -80.9058 256° West 416 479 36,000  Level Indianapolis Center
09:02PM 38.4931 -81.0489 256° West 416 479 36,000  Level Indianapolis Center
09:03PM 38.4642 -81.1933 256° West 416 479 36,000  Level Indianapolis Center
09:04PM 38.4361 -81.3378 256° West 416 479 36,000  Level Indianapolis Center
09:05PM 38.4067 -81.4822 255° West 416 479 36,000  Level Indianapolis Center
09:06PM 38.3789 -81.6258 256° West 416 479 36,000  Level Indianapolis Center
09:07PM 38.3500 -81.7678 255° West 415 478 36,000  Level Indianapolis Center
09:08PM 38.3042 -81.9328 251° West 414 476 36,000  Level Indianapolis Center
09:10PM 38.2656 -82.0706 250° West 414 476 36,000  Level Indianapolis Center
09:11PM 38.2269 -82.2083 250° West 414 476 36,000  Level Indianapolis Center
09:12PM 38.1881 -82.3467 250° West 414 476 36,000  Level Indianapolis Center
09:17PM 37.9616 -83.1272 250° West 418 481 36,000  Level FlightAware ADS-B (KPMH)
09:18PM 37.9442 -83.1861 250° West 416 479 36,000  Level Indianapolis Center
09:22PM 37.7498 -83.8403 249° West 418 481 36,000  Level FlightAware ADS-B (KBRY)
09:24PM 37.6741 -84.0902 249° West 414 476 36,000  Level FlightAware ADS-B (KBRY)
09:26PM 37.5947 -84.3505 249° West 411 473 36,000  Level FlightAware ADS-B (KBRY)
09:27PM 37.5507 -84.4927 249° West 407 468 36,000  Level FlightAware ADS-B (KBRY)
09:28PM 37.5135 -84.6130 249° West 407 468 36,000  Level FlightAware ADS-B (KBRY)
09:29PM 37.4688 -84.7566 249° West 407 468 36,000  Level FlightAware ADS-B (KBRY)
09:30PM 37.4332 -84.8715 249° West 407 468 36,000  Level FlightAware ADS-B (KBRY)
09:31PM 37.3882 -85.0164 249° West 409 471 36,000  Level FlightAware ADS-B (KBRY)
09:32PM 37.3454 -85.1523 248° West 410 472 36,000  Level FlightAware ADS-B (KBRY)
09:33PM 37.3028 -85.2869 248° West 408 470 36,000  Level FlightAware ADS-B (KBRY)
09:34PM 37.2609 -85.4184 248° West 405 466 36,000  Level FlightAware ADS-B (KBRY)
09:35PM 37.2210 -85.5439 248° West 402 463 36,000  Level FlightAware ADS-B (KBRY)
09:36PM 37.1778 -85.6788 248° West 404 465 36,100 660 Climbing FlightAware ADS-B (KBRY)
09:37PM 37.1356 -85.8095 248° West 393 452 37,400 900 Climbing FlightAware ADS-B (KBRY)
09:38PM 37.0953 -85.9345 248° West 390 449 38,000 300 Climbing FlightAware ADS-B (KBRY)
09:39PM 37.0547 -86.0586 248° West 392 451 38,000  Level FlightAware ADS-B (KBRY)
09:40PM 37.0197 -86.1660 248° West 393 452 38,000  Level FlightAware ADS-B (KBRY)
09:41PM 36.9789 -86.2909 248° West 395 455 38,000  Level FlightAware ADS-B (KBRY)
09:42PM 36.9318 -86.4346 248° West 396 456 38,000  Level FlightAware ADS-B (KBRY)
09:43PM 36.8859 -86.5628 246° West 396 456 38,000  Level FlightAware ADS-B (KBRY)
09:44PM 36.8448 -86.6768 246° West 395 455 38,000  Level FlightAware ADS-B (KBRY)
09:45PM 36.8144 -86.7625 246° West 394 453 38,000  Level Memphis Center
09:46PM 36.7697 -86.8867 246° West 394 453 38,000  Level Memphis Center
09:47PM 36.7183 -87.0306 246° West 394 453 38,000  Level Memphis Center
09:48PM 36.6733 -87.1539 246° West 393 452 38,000  Level Memphis Center
09:49PM 36.6283 -87.2764 245° Southwest 392 451 38,000  Level Memphis Center
09:50PM 36.5831 -87.3989 245° Southwest 391 450 38,000  Level Memphis Center
09:51PM 36.5375 -87.5211 245° Southwest 391 450 38,000  Level Memphis Center
09:52PM 36.4922 -87.6442 245° Southwest 391 450 38,000  Level Memphis Center
09:53PM 36.4458 -87.7681 245° Southwest 391 450 38,000  Level Memphis Center
09:54PM 36.3992 -87.8928 245° Southwest 391 450 38,000  Level Memphis Center
09:55PM 36.3525 -88.0178 245° Southwest 392 451 38,000  Level Memphis Center
09:56PM 36.2969 -88.1614 244° Southwest 394 453 38,000  Level Memphis Center
09:57PM 36.2494 -88.2858 245° Southwest 395 455 38,000  Level Memphis Center
09:58PM 36.2025 -88.4097 245° Southwest 395 455 38,000  Level Memphis Center
09:59PM 36.1544 -88.5353 245° Southwest 397 457 38,000  Level Memphis Center
10:00PM 36.1058 -88.6606 244° Southwest 398 458 38,000  Level Memphis Center
10:01PM 36.0583 -88.7850 245° Southwest 399 459 38,000  Level Memphis Center
10:02PM 36.0094 -88.9100 244° Southwest 399 459 38,000  Level Memphis Center
10:03PM 35.9611 -89.0353 245° Southwest 399 459 38,000  Level Memphis Center
10:04PM 35.9119 -89.1614 244° Southwest 400 460 38,000  Level Memphis Center
10:05PM 35.8625 -89.2881 244° Southwest 403 464 38,000  Level Memphis Center
10:06PM 35.8128 -89.4147 244° Southwest 404 465 38,000  Level Memphis Center
10:08PM 35.7525 -89.5683 244° Southwest 408 470 38,000  Level Memphis Center
10:09PM 35.7028 -89.6947 244° Southwest 408 470 38,000  Level Memphis Center
10:10PM 35.6572 -89.8117 244° Southwest 409 471 38,000  Level Memphis Center
10:11PM 35.6075 -89.9375 244° Southwest 409 471 38,000  Level Memphis Center
10:12PM 35.5567 -90.0608 243° Southwest 409 471 38,000  Level Memphis Center
10:13PM 35.5061 -90.1858 244° Southwest 409 471 38,000  Level Memphis Center
10:14PM 35.4456 -90.3369 244° Southwest 410 472 38,000  Level Memphis Center
10:15PM 35.3997 -90.4639 246° West 410 472 38,000  Level Memphis Center
10:16PM 35.3567 -90.5928 248° West 410 472 38,000  Level Memphis Center
10:17PM 35.3136 -90.7192 247° West 410 472 38,000  Level Memphis Center
10:18PM 35.2706 -90.8478 248° West 410 472 38,000  Level Memphis Center
10:19PM 35.2269 -90.9767 248° West 410 472 38,000  Level Memphis Center
10:20PM 35.1794 -91.1139 247° West 410 472 38,000  Level Memphis Center
10:21PM 35.1383 -91.2342 247° West 410 472 38,000  Level Memphis Center
10:22PM 35.0836 -91.3889 247° West 411 473 38,000  Level Memphis Center
10:23PM 35.0436 -91.5025 247° West 412 474 38,000  Level Memphis Center
10:24PM 34.9978 -91.6339 247° West 415 478 38,000  Level Memphis Center
10:25PM 34.9522 -91.7636 247° West 416 479 38,000  Level Memphis Center
10:26PM 34.8964 -91.9231 247° West 421 484 38,000  Level Memphis Center
10:27PM 34.8494 -92.0547 247° West 421 484 38,000  Level Memphis Center
10:28PM 34.8042 -92.1839 247° West 420 483 38,000  Level Memphis Center
10:29PM 34.7575 -92.3144 247° West 420 483 38,000  Level Memphis Center
10:30PM 34.7117 -92.4436 247° West 420 483 38,000  Level Memphis Center
10:31PM 34.6658 -92.5717 247° West 416 479 38,000  Level Memphis Center
10:32PM 34.6189 -92.7008 246° West 416 479 38,000  Level Memphis Center
10:38PM 34.3417 -93.4601 246° West 419 482 38,000  Level FlightAware ADS-B (KDTN)
10:38PM 34.3148 -93.5359 251° West 419 482 38,000  Level FlightAware ADS-B (KDTN)
10:39PM 34.3044 -93.5738 252° West 420 483 38,000  Level FlightAware ADS-B (KDTN)
10:43PM 34.1298 -94.1956 248° West 426 490 38,000  Level FlightAware ADS-B (KDTN)
10:44PM 34.1048 -94.2711 249° West 425 489 38,000  Level FlightAware ADS-B (KHOU)
10:44PM 34.1019 -94.2799 248° West 426 490 38,000  Level FlightAware ADS-B (KDTN)
10:44PM 34.0852 -94.3311 249° West 426 490 38,000 -780 Level FlightAware ADS-B (KHOU)
10:46PM 33.9954 -94.6116 250° West 423 487 36,200 -900 Descending FlightAware ADS-B (KDTN)
10:48PM 33.9533 -94.7428 250° West 432 497 35,300 -900 Descending Fort Worth Center
10:49PM 33.9100 -94.8767 249° West 432 497 34,300 -1,020 Descending Fort Worth Center
10:50PM 33.8667 -95.0106 249° West 429 494 33,300 -960 Descending Fort Worth Center
10:51PM 33.8194 -95.1506 248° West 451 519 32,400 -1,680 Descending Fort Worth Center
10:52PM 33.7742 -95.2906 249° West 453 521 30,000 -2,640 Descending Fort Worth Center
10:53PM 33.7192 -95.4539 248° West 443 510 27,100 -2,580 Descending Fort Worth Center
10:54PM 33.6736 -95.5861 248° West 435 501 24,800 -2,400 Descending Fort Worth Center
10:55PM 33.6306 -95.7219 249° West 415 478 22,300 -2,340 Descending Fort Worth Center
10:56PM 33.5894 -95.8433 248° West 399 459 20,100 -2,100 Descending Fort Worth Center
10:57PM 33.5475 -95.9633 247° West 382 440 18,000 -1,680 Descending Fort Worth Center
11:02PM 33.3198 -96.5155 237° Southwest 297 342 9,300 -1,620 Descending FlightAware ADS-B (KAFW)
11:03PM 33.3057 -96.5415 237° Southwest 292 336 8,900 -1,200 Descending FlightAware ADS-B (KAFW)
11:03PM 33.2907 -96.5692 237° Southwest 287 330 8,500 -1,200 Descending FlightAware ADS-B (KAFW)
11:03PM 33.2777 -96.5932 237° Southwest 283 326 8,100 -1,380 Descending FlightAware ADS-B (KAFW)
11:04PM 33.2616 -96.6226 236° Southwest 280 322 7,600 -1,680 Descending FlightAware ADS-B (KAFW)
11:04PM 33.2478 -96.6472 236° Southwest 283 326 7,000 -1,500 Descending FlightAware ADS-B (KAFW)
11:04PM 33.2333 -96.6737 236° Southwest 280 322 6,600 -1,200 Descending FlightAware ADS-B (KAFW)
11:05PM 33.2193 -96.6995 237° Southwest 275 316 6,200 -1,260 Descending FlightAware ADS-B (KAFW)
11:05PM 33.2066 -96.7230 237° Southwest 271 312 5,800 -1,320 Descending FlightAware ADS-B (KAFW)
11:05PM 33.1916 -96.7505 237° Southwest 269 310 5,300 -1,380 Descending FlightAware ADS-B (KAFW)
11:06PM 33.1797 -96.7724 237° Southwest 268 308 4,900 -1,380 Descending FlightAware ADS-B (KAFW)
11:06PM 33.1640 -96.8012 237° Southwest 266 306 4,400 -1,320 Descending FlightAware ADS-B (KAFW)
11:06PM 33.1588 -96.8135 248° West 266 306 4,200 -960 Descending FlightAware ADS-B (KAFW)
11:06PM 33.1560 -96.8268 257° West 263 303 4,100 -660 Descending FlightAware ADS-B (KAFW)
11:07PM 33.1511 -96.8535 257° West 251 289 3,900 -300 Descending FlightAware ADS-B (KAFW)
11:07PM 33.1458 -96.8827 257° West 234 269 3,900  Level FlightAware ADS-B (KAFW)
11:07PM 33.1420 -96.9044 258° West 229 264 3,900 -660 Level FlightAware ADS-B (KAFW)
11:08PM 33.1353 -96.9424 257° West 233 268 3,400 -960 Descending FlightAware ADS-B (KAFW)
11:08PM 33.1304 -96.9670 255° West 225 259 3,100 -780 Descending FlightAware ADS-B (KAFW)
11:08PM 33.1264 -96.9789 243° Southwest 219 252 3,000 -600 Descending FlightAware ADS-B (KAFW)
11:08PM 33.1214 -96.9879 233° Southwest 211 243 2,900 -420 Descending FlightAware ADS-B (KAFW)
11:09PM 33.1065 -97.0040 213° Southwest 207 238 2,800 -180 Descending FlightAware ADS-B (KAFW)
11:09PM 33.0891 -97.0136 201° Southwest 184 212 2,800 120 Level FlightAware ADS-B (KAFW)
11:09PM 33.0742 -97.0198 197° South 175 201 2,900 120 Climbing FlightAware ADS-B (KAFW)
11:10PM 33.0581 -97.0249 190° South 174 200 2,900 -360 Level FlightAware ADS-B (KAFW)
11:10PM 33.0336 -97.0253 179° South 173 199 2,600 -720 Descending FlightAware ADS-B (KAFW)
11:11PM 33.0185 -97.0254 179° South 168 193 2,300 -840 Descending FlightAware ADS-B (KAFW)
11:11PM 33.0101 -97.0255 180° South 155 178 2,100 -660 Descending FlightAware ADS-B (KAFW)
11:11PM 32.9921 -97.0255 180° South 145 167 1,900 -840 Descending FlightAware ADS-B (KAFW)
11:12PM 32.9792 -97.0255 180° South 145 167 1,600 -840 Descending FlightAware ADS-B (KAFW)
11:12PM 32.9671 -97.0256 180° South 143 165 1,300 -720 Descending FlightAware ADS-B (KAFW)
11:13PM 32.9167 -97.0167 180° South 149 171 700 -660 Descending Dallas / Fort Worth TRACON